Impacts TAF Board INFO
FOR SITUATIONAL AWARENESS. NOT TO BE USED FOR FLIGHT PLANNING PURPOSES.
IDs:

KDCA - Washington/National, VA, US

Issued at 2339 UTC 27 May 2018
Updated at 0135 UTC 28 May 2018
Potential Impact None Slight Moderate High
Time0118Z 28/02Z 28/03Z 28/04Z 28/05Z 28/06Z 28/07Z 28/08Z 28/09Z 28/10Z 28/11Z 28/12Z 28/13Z 28/14Z>>
Type OBS PRVL PRVL PRVL PRVL PRVL PRVL PRVL PRVL PRVL PRVL PRVL PRVL PRVL
VIS 10 >6 >6 >6 >6 >6 >6 >6 >6 >6 >6 >6 >6 >6
CIG 9 30 30 30 10 10 4 4 4 4 4 4 8 8
Cover OVC OVC OVC OVC OVC OVC OVC OVC OVC OVC OVC OVC OVC OVC
FltCat IFR MVFR MVFR MVFR MVFR MVFR LIFR LIFR LIFR LIFR LIFR LIFR IFR IFR
WX -- VCSH VCSH VCSH -- -- -- -- -- -- -- -- -- --
WDir 80 50 50 50 120 120 110 110 110 110 110 110 70 70
WSpd 6 8 8 8 4 4 4 4 4 4 4 4 4 4
WGst -- -- -- -- -- -- -- -- -- -- -- -- -- --

Raw TAF
KDCA 272339Z 2800/2906 05008KT P6SM VCSH OVC030
  FM280500 12004KT P6SM OVC010
  FM280700 11004KT P6SM OVC004
  FM281300 07004KT P6SM OVC008
  FM281600 09004KT P6SM OVC010
  FM281900 13004KT P6SM BKN020
  FM290500 VRB03KT P6SM BKN010


Raw METAR
KDCA 280118Z 08006KT 10SM OVC009 23/20 A2998 RMK AO2 LTG DSNT SE-W T02280200
KDCA 280106Z 08007KT 10SM OVC012 23/20 A2998 RMK AO2 LTG DSNT SW-NW T02330200
KDCA 280052Z 08006KT 10SM VCTS BKN014 OVC038 23/20 A2998 RMK AO2 LTG DSNT S-W RAB10E24 SLP151 P0000 T02330200
KDCA 280049Z 08005KT 10SM VCTS BKN014 BKN038 23/20 A2998 RMK AO2 LTG DSNT SE-W RAB10E24 P0000
KDCA 272352Z 06011KT 10SM SCT016 BKN030CB OVC039 23/20 A2997 RMK AO2 LTG DSNT ALQDS RAE40 TSB11E25 SLP148 CB NE-E MOV E P0000 60000 T02330200 10294 20233 53019
KDCA 272331Z 04007KT 10SM -RA OVC030CB 24/19 A2997 RMK AO2 LTG DSNT E AND SW AND W TSB11E25 CB VC SE MOV E P0000 T02390194
KDCA 272329Z 05008KT 10SM VCTS -RA OVC030CB 24/19 A2997 RMK AO2 LTG DSNT ALQDS TSB11E25 CB VC SE MOV E P0000 T02390194
KDCA 272314Z 03007KT 10SM -TSRA BKN034CB OVC048 24/19 A2996 RMK AO2 LTG DSNT ALQDS TSB11 CB VC SE-S MOV E P0000 T02390194
KDCA 272252Z 02011KT 10SM VCTS -RA FEW010 BKN038CB OVC044 24/20 A2994 RMK AO2 WSHFT 2211 LTG DSNT ALQDS TSE29 SLP139 CB VC SE MOV E P0000 T02440200

METAR Board
Radar Display
Forecast Discussion

FOR SITUATIONAL AWARENESS. NOT TO BE USED FOR FLIGHT PLANNING PURPOSES.